sensor_id;sensor_type;location;lat;lon;timestamp;pressure;altitude;pressure_sealevel;temperature;humidity
70833;BME280;71099;59.528;17.886;2024-01-15T00:02:08;98190.50;;;-4.59;85.38
70833;BME280;71099;59.528;17.886;2024-01-15T00:04:40;98189.59;;;-4.47;85.28
70833;BME280;71099;59.528;17.886;2024-01-15T00:07:06;98184.78;;;-4.50;85.20
70833;BME280;71099;59.528;17.886;2024-01-15T00:09:32;98186.59;;;-4.63;86.14
70833;BME280;71099;59.528;17.886;2024-01-15T00:11:58;98178.97;;;-4.50;85.95
70833;BME280;71099;59.528;17.886;2024-01-15T00:14:23;98180.28;;;-4.68;86.95
70833;BME280;71099;59.528;17.886;2024-01-15T00:16:49;98176.63;;;-4.64;87.71
70833;BME280;71099;59.528;17.886;2024-01-15T00:19:17;98176.84;;;-4.67;87.29
70833;BME280;71099;59.528;17.886;2024-01-15T00:21:42;98174.13;;;-4.64;87.66
70833;BME280;71099;59.528;17.886;2024-01-15T00:24:08;98176.31;;;-4.60;87.99
70833;BME280;71099;59.528;17.886;2024-01-15T00:26:33;98167.72;;;-4.57;87.69
70833;BME280;71099;59.528;17.886;2024-01-15T00:28:59;98168.53;;;-4.57;87.27
70833;BME280;71099;59.528;17.886;2024-01-15T00:31:24;98165.94;;;-4.55;87.35
70833;BME280;71099;59.528;17.886;2024-01-15T00:33:50;98168.66;;;-4.47;87.98
70833;BME280;71099;59.528;17.886;2024-01-15T00:36:15;98167.50;;;-4.54;87.17
70833;BME280;71099;59.528;17.886;2024-01-15T00:38:42;98174.28;;;-4.44;87.40
70833;BME280;71099;59.528;17.886;2024-01-15T00:41:07;98165.47;;;-4.49;87.61
70833;BME280;71099;59.528;17.886;2024-01-15T00:43:33;98160.31;;;-4.59;87.65
70833;BME280;71099;59.528;17.886;2024-01-15T00:46:01;98164.53;;;-4.59;87.70
70833;BME280;71099;59.528;17.886;2024-01-15T00:48:27;98167.59;;;-4.67;87.99
70833;BME280;71099;59.528;17.886;2024-01-15T00:50:52;98151.22;;;-4.72;87.86
70833;BME280;71099;59.528;17.886;2024-01-15T00:53:19;98152.56;;;-4.79;88.26
70833;BME280;71099;59.528;17.886;2024-01-15T00:55:47;98152.59;;;-4.68;88.19
70833;BME280;71099;59.528;17.886;2024-01-15T00:58:13;98147.13;;;-4.73;88.03
70833;BME280;71099;59.528;17.886;2024-01-15T01:00:38;98153.94;;;-4.75;88.08
70833;BME280;71099;59.528;17.886;2024-01-15T01:03:04;98152.56;;;-4.79;88.55
70833;BME280;71099;59.528;17.886;2024-01-15T01:05:29;98152.16;;;-4.73;88.22
70833;BME280;71099;59.528;17.886;2024-01-15T01:07:54;98154.31;;;-4.69;88.54
70833;BME280;71099;59.528;17.886;2024-01-15T01:10:20;98146.38;;;-4.86;88.33
70833;BME280;71099;59.528;17.886;2024-01-15T01:12:45;98141.34;;;-4.86;88.77
70833;BME280;71099;59.528;17.886;2024-01-15T01:15:11;98143.41;;;-4.80;88.77
70833;BME280;71099;59.528;17.886;2024-01-15T01:17:36;98145.72;;;-4.77;88.67
70833;BME280;71099;59.528;17.886;2024-01-15T01:20:02;98139.31;;;-4.81;87.59
70833;BME280;71099;59.528;17.886;2024-01-15T01:22:29;98138.84;;;-4.75;87.73
70833;BME280;71099;59.528;17.886;2024-01-15T01:24:55;98132.22;;;-4.76;87.62
70833;BME280;71099;59.528;17.886;2024-01-15T01:27:21;98138.63;;;-4.72;86.90
70833;BME280;71099;59.528;17.886;2024-01-15T01:29:46;98129.50;;;-4.73;87.39
70833;BME280;71099;59.528;17.886;2024-01-15T01:32:12;98131.22;;;-4.74;86.55
70833;BME280;71099;59.528;17.886;2024-01-15T01:34:41;98143.63;;;-4.83;86.51
70833;BME280;71099;59.528;17.886;2024-01-15T01:37:08;98130.34;;;-4.97;86.98
70833;BME280;71099;59.528;17.886;2024-01-15T01:39:33;98135.41;;;-4.85;86.72
70833;BME280;71099;59.528;17.886;2024-01-15T01:41:58;98130.25;;;-4.84;86.44
70833;BME280;71099;59.528;17.886;2024-01-15T01:44:24;98130.34;;;-4.97;86.81
70833;BME280;71099;59.528;17.886;2024-01-15T01:46:49;98130.09;;;-4.94;87.42
70833;BME280;71099;59.528;17.886;2024-01-15T01:49:15;98124.59;;;-4.99;87.47
70833;BME280;71099;59.528;17.886;2024-01-15T01:51:41;98124.41;;;-4.96;87.68
70833;BME280;71099;59.528;17.886;2024-01-15T01:54:07;98126.59;;;-5.15;87.46
70833;BME280;71099;59.528;17.886;2024-01-15T01:56:35;98120.44;;;-5.11;88.27
70833;BME280;71099;59.528;17.886;2024-01-15T01:59:01;98128.03;;;-5.00;88.15
70833;BME280;71099;59.528;17.886;2024-01-15T02:01:28;98123.19;;;-5.14;87.78
70833;BME280;71099;59.528;17.886;2024-01-15T02:03:54;98118.84;;;-5.12;87.52
70833;BME280;71099;59.528;17.886;2024-01-15T02:06:22;98114.78;;;-5.25;87.97
70833;BME280;71099;59.528;17.886;2024-01-15T02:08:48;98118.06;;;-5.36;88.21
70833;BME280;71099;59.528;17.886;2024-01-15T02:11:13;98109.38;;;-5.32;88.03
70833;BME280;71099;59.528;17.886;2024-01-15T02:13:39;98122.44;;;-5.27;88.27
70833;BME280;71099;59.528;17.886;2024-01-15T02:16:05;98111.19;;;-5.34;87.89
70833;BME280;71099;59.528;17.886;2024-01-15T02:18:42;98121.28;;;-5.47;88.43
70833;BME280;71099;59.528;17.886;2024-01-15T02:21:09;98113.66;;;-5.45;88.89
70833;BME280;71099;59.528;17.886;2024-01-15T02:23:34;98115.25;;;-5.44;88.91
70833;BME280;71099;59.528;17.886;2024-01-15T02:26:00;98114.91;;;-5.51;88.97
70833;BME280;71099;59.528;17.886;2024-01-15T02:28:26;98115.81;;;-5.64;89.04
70833;BME280;71099;59.528;17.886;2024-01-15T02:30:51;98114.25;;;-5.65;89.81
70833;BME280;71099;59.528;17.886;2024-01-15T02:33:17;98108.88;;;-5.61;89.85
70833;BME280;71099;59.528;17.886;2024-01-15T02:35:42;98110.19;;;-5.55;89.85
70833;BME280;71099;59.528;17.886;2024-01-15T02:38:08;98108.88;;;-5.61;90.00
70833;BME280;71099;59.528;17.886;2024-01-15T02:40:34;98107.13;;;-5.48;89.51
70833;BME280;71099;59.528;17.886;2024-01-15T02:43:00;98100.75;;;-5.64;90.24
70833;BME280;71099;59.528;17.886;2024-01-15T02:45:26;98101.69;;;-5.65;90.39
70833;BME280;71099;59.528;17.886;2024-01-15T02:47:51;98108.19;;;-5.63;90.45
70833;BME280;71099;59.528;17.886;2024-01-15T02:50:17;98103.47;;;-5.67;90.61
70833;BME280;71099;59.528;17.886;2024-01-15T02:52:42;98104.88;;;-5.63;90.33
70833;BME280;71099;59.528;17.886;2024-01-15T02:55:08;98099.41;;;-5.57;90.30
70833;BME280;71099;59.528;17.886;2024-01-15T02:57:34;98105.84;;;-5.53;90.11
70833;BME280;71099;59.528;17.886;2024-01-15T02:59:59;98103.66;;;-5.58;89.97
70833;BME280;71099;59.528;17.886;2024-01-15T03:02:25;98109.69;;;-5.60;89.78
70833;BME280;71099;59.528;17.886;2024-01-15T03:04:50;98101.75;;;-5.54;89.85
70833;BME280;71099;59.528;17.886;2024-01-15T03:07:16;98111.88;;;-5.56;89.42
70833;BME280;71099;59.528;17.886;2024-01-15T03:09:41;98110.41;;;-5.58;88.73
70833;BME280;71099;59.528;17.886;2024-01-15T03:12:07;98105.41;;;-5.71;87.10
70833;BME280;71099;59.528;17.886;2024-01-15T03:14:32;98114.91;;;-5.63;86.15
70833;BME280;71099;59.528;17.886;2024-01-15T03:16:58;98111.81;;;-5.67;86.04
70833;BME280;71099;59.528;17.886;2024-01-15T03:19:23;98109.00;;;-5.62;85.79
70833;BME280;71099;59.528;17.886;2024-01-15T03:21:49;98106.28;;;-5.59;85.16
70833;BME280;71099;59.528;17.886;2024-01-15T03:24:14;98100.53;;;-5.61;84.75
70833;BME280;71099;59.528;17.886;2024-01-15T03:26:39;98110.13;;;-5.66;84.06
70833;BME280;71099;59.528;17.886;2024-01-15T03:29:05;98101.09;;;-5.69;84.37
70833;BME280;71099;59.528;17.886;2024-01-15T03:31:31;98103.69;;;-5.70;84.68
70833;BME280;71099;59.528;17.886;2024-01-15T03:33:56;98095.72;;;-5.64;85.33
70833;BME280;71099;59.528;17.886;2024-01-15T03:36:21;98099.63;;;-5.60;83.90
70833;BME280;71099;59.528;17.886;2024-01-15T03:38:47;98105.25;;;-5.57;84.31
70833;BME280;71099;59.528;17.886;2024-01-15T03:41:12;98112.84;;;-5.69;83.00
70833;BME280;71099;59.528;17.886;2024-01-15T03:43:38;98108.28;;;-5.64;82.96
70833;BME280;71099;59.528;17.886;2024-01-15T03:46:04;98109.47;;;-5.57;83.69
70833;BME280;71099;59.528;17.886;2024-01-15T03:48:30;98104.88;;;-5.63;82.30
70833;BME280;71099;59.528;17.886;2024-01-15T03:50:55;98114.91;;;-5.63;83.21
70833;BME280;71099;59.528;17.886;2024-01-15T03:53:21;98102.06;;;-5.71;82.53
70833;BME280;71099;59.528;17.886;2024-01-15T03:55:46;98112.94;;;-5.71;83.31
70833;BME280;71099;59.528;17.886;2024-01-15T03:58:12;98109.53;;;-5.70;82.08
70833;BME280;71099;59.528;17.886;2024-01-15T04:00:40;98101.41;;;-5.73;82.63
70833;BME280;71099;59.528;17.886;2024-01-15T04:03:05;98102.78;;;-5.69;83.35
70833;BME280;71099;59.528;17.886;2024-01-15T04:05:31;98102.06;;;-5.71;82.64
70833;BME280;71099;59.528;17.886;2024-01-15T04:07:56;98098.44;;;-5.67;81.87
70833;BME280;71099;59.528;17.886;2024-01-15T04:10:21;98104.13;;;-5.76;82.22
70833;BME280;71099;59.528;17.886;2024-01-15T04:12:47;98112.56;;;-5.77;82.69
70833;BME280;71099;59.528;17.886;2024-01-15T04:15:13;98096.78;;;-5.79;82.53
70833;BME280;71099;59.528;17.886;2024-01-15T04:17:38;98106.78;;;-5.90;82.89
70833;BME280;71099;59.528;17.886;2024-01-15T04:20:04;98103.16;;;-5.86;82.37
70833;BME280;71099;59.528;17.886;2024-01-15T04:22:30;98103.84;;;-5.84;82.92
70833;BME280;71099;59.528;17.886;2024-01-15T04:24:55;98110.34;;;-5.82;83.17
70833;BME280;71099;59.528;17.886;2024-01-15T04:27:21;98107.31;;;-5.74;83.24
70833;BME280;71099;59.528;17.886;2024-01-15T04:29:46;98117.16;;;-5.71;82.85
70833;BME280;71099;59.528;17.886;2024-01-15T04:32:12;98113.09;;;-5.61;82.37
70833;BME280;71099;59.528;17.886;2024-01-15T04:34:37;98116.75;;;-5.65;82.44
70833;BME280;71099;59.528;17.886;2024-01-15T04:37:03;98123.25;;;-5.63;82.45
70833;BME280;71099;59.528;17.886;2024-01-15T04:39:29;98117.38;;;-5.74;82.29
70833;BME280;71099;59.528;17.886;2024-01-15T04:41:54;98111.72;;;-5.65;82.29
70833;BME280;71099;59.528;17.886;2024-01-15T04:44:19;98121.13;;;-5.56;81.98
70833;BME280;71099;59.528;17.886;2024-01-15T04:46:45;98123.56;;;-5.67;81.20
70833;BME280;71099;59.528;17.886;2024-01-15T04:49:11;98111.91;;;-5.68;81.23
70833;BME280;71099;59.528;17.886;2024-01-15T04:51:36;98107.31;;;-5.74;81.80
70833;BME280;71099;59.528;17.886;2024-01-15T04:54:03;98110.13;;;-5.79;81.69
70833;BME280;71099;59.528;17.886;2024-01-15T04:56:28;98112.97;;;-5.83;82.21
70833;BME280;71099;59.528;17.886;2024-01-15T04:58:53;98102.59;;;-5.79;82.43
70833;BME280;71099;59.528;17.886;2024-01-15T05:01:19;98124.22;;;-5.76;82.37
70833;BME280;71099;59.528;17.886;2024-01-15T05:03:44;98111.59;;;-5.87;82.27
70833;BME280;71099;59.528;17.886;2024-01-15T05:06:10;98117.78;;;-5.80;81.82
70833;BME280;71099;59.528;17.886;2024-01-15T05:08:35;98105.91;;;-5.78;81.03
70833;BME280;71099;59.528;17.886;2024-01-15T05:11:00;98114.78;;;-5.85;81.46
70833;BME280;71099;59.528;17.886;2024-01-15T05:13:26;98123.63;;;-5.80;81.65
70833;BME280;71099;59.528;17.886;2024-01-15T05:15:52;98118.47;;;-5.78;81.92
70833;BME280;71099;59.528;17.886;2024-01-15T05:18:17;98130.44;;;-5.82;82.14
70833;BME280;71099;59.528;17.886;2024-01-15T05:20:43;98124.81;;;-5.85;82.33
70833;BME280;71099;59.528;17.886;2024-01-15T05:23:09;98126.00;;;-5.78;83.00
70833;BME280;71099;59.528;17.886;2024-01-15T05:25:34;98116.81;;;-5.90;82.02
70833;BME280;71099;59.528;17.886;2024-01-15T05:27:59;98117.03;;;-5.94;82.13
70833;BME280;71099;59.528;17.886;2024-01-15T05:30:25;98120.25;;;-5.91;81.97
70833;BME280;71099;59.528;17.886;2024-01-15T05:32:50;98123.91;;;-5.84;81.33
70833;BME280;71099;59.528;17.886;2024-01-15T05:35:16;98130.91;;;-5.88;79.99
70833;BME280;71099;59.528;17.886;2024-01-15T05:37:44;98123.06;;;-6.09;80.71
70833;BME280;71099;59.528;17.886;2024-01-15T05:40:11;98127.69;;;-6.03;80.88
70833;BME280;71099;59.528;17.886;2024-01-15T05:42:37;98127.50;;;-6.00;81.12
70833;BME280;71099;59.528;17.886;2024-01-15T05:45:03;98117.75;;;-6.04;79.65
70833;BME280;71099;59.528;17.886;2024-01-15T05:47:30;98128.13;;;-6.21;79.59
70833;BME280;71099;59.528;17.886;2024-01-15T05:49:56;98118.06;;;-6.21;79.54
70833;BME280;71099;59.528;17.886;2024-01-15T05:52:22;98132.72;;;-6.15;79.90
70833;BME280;71099;59.528;17.886;2024-01-15T05:54:49;98126.91;;;-6.16;79.44
70833;BME280;71099;59.528;17.886;2024-01-15T05:57:14;98128.50;;;-6.15;79.17
70833;BME280;71099;59.528;17.886;2024-01-15T05:59:39;98127.91;;;-6.06;79.28
70833;BME280;71099;59.528;17.886;2024-01-15T06:02:05;98136.13;;;-6.16;78.12
70833;BME280;71099;59.528;17.886;2024-01-15T06:04:30;98141.47;;;-6.21;78.88
70833;BME280;71099;59.528;17.886;2024-01-15T06:06:56;98137.56;;;-6.25;78.04
70833;BME280;71099;59.528;17.886;2024-01-15T06:09:21;98136.84;;;-6.27;78.05
70833;BME280;71099;59.528;17.886;2024-01-15T06:11:47;98146.16;;;-6.42;78.16
70833;BME280;71099;59.528;17.886;2024-01-15T06:14:12;98147.97;;;-6.31;77.76
70833;BME280;71099;59.528;17.886;2024-01-15T06:16:37;98148.38;;;-6.37;77.82
70833;BME280;71099;59.528;17.886;2024-01-15T06:19:03;98163.03;;;-6.31;77.13
70833;BME280;71099;59.528;17.886;2024-01-15T06:21:28;98140.16;;;-6.39;78.07
70833;BME280;71099;59.528;17.886;2024-01-15T06:23:54;98142.25;;;-6.33;77.38
70833;BME280;71099;59.528;17.886;2024-01-15T06:26:22;98143.78;;;-6.43;77.19
70833;BME280;71099;59.528;17.886;2024-01-15T06:28:47;98156.31;;;-6.43;76.52
70833;BME280;71099;59.528;17.886;2024-01-15T06:31:13;98152.00;;;-6.41;76.34
70833;BME280;71099;59.528;17.886;2024-01-15T06:33:38;98144.75;;;-6.46;76.42
70833;BME280;71099;59.528;17.886;2024-01-15T06:36:04;98162.94;;;-6.42;77.19
70833;BME280;71099;59.528;17.886;2024-01-15T06:38:30;98163.03;;;-6.44;77.96
70833;BME280;71099;59.528;17.886;2024-01-15T06:40:56;98166.22;;;-6.42;76.42
70833;BME280;71099;59.528;17.886;2024-01-15T06:43:21;98168.25;;;-6.34;76.30
70833;BME280;71099;59.528;17.886;2024-01-15T06:45:47;98165.06;;;-6.36;75.58
70833;BME280;71099;59.528;17.886;2024-01-15T06:48:12;98165.03;;;-6.49;76.02
70833;BME280;71099;59.528;17.886;2024-01-15T06:50:40;98172.06;;;-6.54;75.17
70833;BME280;71099;59.528;17.886;2024-01-15T06:53:05;98167.25;;;-6.44;75.93
70833;BME280;71099;59.528;17.886;2024-01-15T06:55:31;98173.56;;;-6.51;75.71
70833;BME280;71099;59.528;17.886;2024-01-15T06:57:56;98182.38;;;-6.58;75.83
70833;BME280;71099;59.528;17.886;2024-01-15T07:00:22;98178.66;;;-6.53;75.43
70833;BME280;71099;59.528;17.886;2024-01-15T07:02:47;98181.50;;;-6.45;75.77
70833;BME280;71099;59.528;17.886;2024-01-15T07:05:12;98192.53;;;-6.47;75.47
70833;BME280;71099;59.528;17.886;2024-01-15T07:07:38;98188.69;;;-6.53;75.42
70833;BME280;71099;59.528;17.886;2024-01-15T07:10:05;98189.13;;;-6.46;75.48
70833;BME280;71099;59.528;17.886;2024-01-15T07:12:30;98201.34;;;-6.54;76.01
70833;BME280;71099;59.528;17.886;2024-01-15T07:14:56;98191.53;;;-6.45;76.21
70833;BME280;71099;59.528;17.886;2024-01-15T07:17:22;98200.75;;;-6.45;75.79
70833;BME280;71099;59.528;17.886;2024-01-15T07:19:47;98198.03;;;-6.55;74.69
70833;BME280;71099;59.528;17.886;2024-01-15T07:22:12;98191.53;;;-6.57;74.30
70833;BME280;71099;59.528;17.886;2024-01-15T07:24:38;98201.16;;;-6.51;75.74
70833;BME280;71099;59.528;17.886;2024-01-15T07:27:04;98191.53;;;-6.57;75.19
70833;BME280;71099;59.528;17.886;2024-01-15T07:29:30;98202.44;;;-6.46;75.61
70833;BME280;71099;59.528;17.886;2024-01-15T07:31:58;98195.84;;;-6.47;75.08
70833;BME280;71099;59.528;17.886;2024-01-15T07:34:23;98208.59;;;-6.37;75.70
70833;BME280;71099;59.528;17.886;2024-01-15T07:36:49;98199.44;;;-6.38;75.76
70833;BME280;71099;59.528;17.886;2024-01-15T07:39:14;98192.94;;;-6.40;75.15
70833;BME280;71099;59.528;17.886;2024-01-15T07:41:40;98198.97;;;-6.43;75.81
70833;BME280;71099;59.528;17.886;2024-01-15T07:44:05;98208.19;;;-6.44;76.36
70833;BME280;71099;59.528;17.886;2024-01-15T07:46:31;98208.19;;;-6.44;75.65
70833;BME280;71099;59.528;17.886;2024-01-15T07:48:57;98207.59;;;-6.47;75.37
70833;BME280;71099;59.528;17.886;2024-01-15T07:51:24;98217.81;;;-6.50;75.73
70833;BME280;71099;59.528;17.886;2024-01-15T07:53:49;98211.88;;;-6.49;76.00
70833;BME280;71099;59.528;17.886;2024-01-15T07:56:15;98213.97;;;-6.56;75.52
70833;BME280;71099;59.528;17.886;2024-01-15T07:58:41;98211.38;;;-6.54;75.23
70833;BME280;71099;59.528;17.886;2024-01-15T08:01:07;98204.94;;;-6.58;75.27
70833;BME280;71099;59.528;17.886;2024-01-15T08:03:32;98216.91;;;-6.49;74.95
70833;BME280;71099;59.528;17.886;2024-01-15T08:05:59;98213.38;;;-6.59;76.00
70833;BME280;71099;59.528;17.886;2024-01-15T08:08:25;98218.91;;;-6.54;76.11
70833;BME280;71099;59.528;17.886;2024-01-15T08:10:52;98213.22;;;-6.44;75.06
70833;BME280;71099;59.528;17.886;2024-01-15T08:13:17;98219.25;;;-6.46;75.39
70833;BME280;71099;59.528;17.886;2024-01-15T08:15:43;98213.81;;;-6.40;76.06
70833;BME280;71099;59.528;17.886;2024-01-15T08:18:08;98217.09;;;-6.52;74.47
70833;BME280;71099;59.528;17.886;2024-01-15T08:20:34;98216.91;;;-6.49;75.39
70833;BME280;71099;59.528;17.886;2024-01-15T08:23:00;98224.06;;;-6.43;75.71
70833;BME280;71099;59.528;17.886;2024-01-15T08:25:25;98216.03;;;-6.35;75.42
70833;BME280;71099;59.528;17.886;2024-01-15T08:27:51;98222.84;;;-6.50;74.74
70833;BME280;71099;59.528;17.886;2024-01-15T08:30:17;98221.22;;;-6.51;75.16
70833;BME280;71099;59.528;17.886;2024-01-15T08:32:44;98223.94;;;-6.54;76.05
70833;BME280;71099;59.528;17.886;2024-01-15T08:35:10;98219.44;;;-6.36;76.09
70833;BME280;71099;59.528;17.886;2024-01-15T08:37:35;98232.41;;;-6.30;75.29
70833;BME280;71099;59.528;17.886;2024-01-15T08:40:01;98224.50;;;-6.24;74.61
70833;BME280;71099;59.528;17.886;2024-01-15T08:42:27;98222.56;;;-6.33;74.36
70833;BME280;71099;59.528;17.886;2024-01-15T08:44:52;98234.91;;;-6.30;74.50
70833;BME280;71099;59.528;17.886;2024-01-15T08:47:17;98235.72;;;-6.42;73.54
70833;BME280;71099;59.528;17.886;2024-01-15T08:49:43;98235.09;;;-6.33;74.54
70833;BME280;71099;59.528;17.886;2024-01-15T08:52:10;98227.28;;;-6.28;74.25
70833;BME280;71099;59.528;17.886;2024-01-15T08:54:35;98237.50;;;-6.44;73.68
70833;BME280;71099;59.528;17.886;2024-01-15T08:57:01;98229.06;;;-6.43;73.98
70833;BME280;71099;59.528;17.886;2024-01-15T08:59:27;98231.91;;;-6.35;73.60
70833;BME280;71099;59.528;17.886;2024-01-15T09:01:52;98232.50;;;-6.31;74.30
70833;BME280;71099;59.528;17.886;2024-01-15T09:04:18;98236.72;;;-6.32;73.21
70833;BME280;71099;59.528;17.886;2024-01-15T09:06:45;98245.34;;;-6.36;73.74
70833;BME280;71099;59.528;17.886;2024-01-15T09:09:12;98249.63;;;-6.38;74.56
70833;BME280;71099;59.528;17.886;2024-01-15T09:11:39;98240.53;;;-6.39;74.15
70833;BME280;71099;59.528;17.886;2024-01-15T09:14:04;98245.13;;;-6.33;74.17
70833;BME280;71099;59.528;17.886;2024-01-15T09:16:30;98241.94;;;-6.35;74.24
70833;BME280;71099;59.528;17.886;2024-01-15T09:18:55;98247.38;;;-6.28;74.34
70833;BME280;71099;59.528;17.886;2024-01-15T09:21:22;98242.06;;;-6.24;72.69
70833;BME280;71099;59.528;17.886;2024-01-15T09:23:50;98245.88;;;-6.18;74.36
70833;BME280;71099;59.528;17.886;2024-01-15T09:26:16;98248.97;;;-6.15;73.18
70833;BME280;71099;59.528;17.886;2024-01-15T09:28:41;98245.56;;;-6.14;73.04
70833;BME280;71099;59.528;17.886;2024-01-15T09:31:07;98247.19;;;-6.13;73.75
70833;BME280;71099;59.528;17.886;2024-01-15T09:33:32;98242.53;;;-6.19;72.83
70833;BME280;71099;59.528;17.886;2024-01-15T09:36:02;98245.78;;;-6.17;72.86
70833;BME280;71099;59.528;17.886;2024-01-15T09:38:29;98241.75;;;-6.19;72.54
70833;BME280;71099;59.528;17.886;2024-01-15T09:40:55;98242.47;;;-6.17;72.14
70833;BME280;71099;59.528;17.886;2024-01-15T09:43:21;98242.88;;;-6.11;72.53
70833;BME280;71099;59.528;17.886;2024-01-15T09:45:48;98239.84;;;-6.16;71.93
70833;BME280;71099;59.528;17.886;2024-01-15T09:48:14;98241.25;;;-6.12;72.50
70833;BME280;71099;59.528;17.886;2024-01-15T09:50:39;98260.94;;;-6.06;71.48
70833;BME280;71099;59.528;17.886;2024-01-15T09:53:05;98256.91;;;-6.21;70.32
70833;BME280;71099;59.528;17.886;2024-01-15T09:55:31;98252.78;;;-6.22;71.10
70833;BME280;71099;59.528;17.886;2024-01-15T09:57:59;98268.25;;;-6.28;70.53
70833;BME280;71099;59.528;17.886;2024-01-15T10:00:26;98257.16;;;-6.38;71.41
70833;BME280;71099;59.528;17.886;2024-01-15T10:02:52;98253.00;;;-6.25;71.04
70833;BME280;71099;59.528;17.886;2024-01-15T10:05:18;98255.09;;;-6.31;70.63
70833;BME280;71099;59.528;17.886;2024-01-15T10:07:45;98261.22;;;-6.23;70.38
70833;BME280;71099;59.528;17.886;2024-01-15T10:10:11;98286.09;;;-6.20;70.17
70833;BME280;71099;59.528;17.886;2024-01-15T10:12:37;98270.84;;;-6.29;69.33
70833;BME280;71099;59.528;17.886;2024-01-15T10:15:04;98271.97;;;-6.21;69.34
70833;BME280;71099;59.528;17.886;2024-01-15T10:17:30;98267.44;;;-6.16;69.69
70833;BME280;71099;59.528;17.886;2024-01-15T10:19:56;98271.44;;;-6.26;69.66
70833;BME280;71099;59.528;17.886;2024-01-15T10:22:22;98265.84;;;-6.17;69.73
70833;BME280;71099;59.528;17.886;2024-01-15T10:24:48;98289.13;;;-6.15;69.00
70833;BME280;71099;59.528;17.886;2024-01-15T10:27:13;98279.31;;;-6.18;69.66
70833;BME280;71099;59.528;17.886;2024-01-15T10:29:41;98274.25;;;-6.30;69.40
70833;BME280;71099;59.528;17.886;2024-01-15T10:32:07;98287.63;;;-6.17;69.57
70833;BME280;71099;59.528;17.886;2024-01-15T10:34:39;98290.16;;;-6.05;69.56
70833;BME280;71099;59.528;17.886;2024-01-15T10:37:07;98287.97;;;-5.97;69.96
70833;BME280;71099;59.528;17.886;2024-01-15T10:39:32;98297.00;;;-6.07;70.18
70833;BME280;71099;59.528;17.886;2024-01-15T10:41:58;98287.34;;;-6.13;68.68
70833;BME280;71099;59.528;17.886;2024-01-15T10:44:23;98291.44;;;-6.12;69.60
70833;BME280;71099;59.528;17.886;2024-01-15T10:46:49;98271.47;;;-6.13;68.28
70833;BME280;71099;59.528;17.886;2024-01-15T10:49:15;98281.09;;;-6.20;68.16
70833;BME280;71099;59.528;17.886;2024-01-15T10:51:41;98282.13;;;-6.10;68.24
70833;BME280;71099;59.528;17.886;2024-01-15T10:54:09;98290.34;;;-6.08;68.46
70833;BME280;71099;59.528;17.886;2024-01-15T10:56:37;98292.66;;;-6.05;68.42
70833;BME280;71099;59.528;17.886;2024-01-15T10:59:03;98287.03;;;-6.08;68.56
70833;BME280;71099;59.528;17.886;2024-01-15T11:01:30;98291.25;;;-6.09;69.19
70833;BME280;71099;59.528;17.886;2024-01-15T11:03:56;98285.13;;;-6.05;68.51
70833;BME280;71099;59.528;17.886;2024-01-15T11:06:24;98294.81;;;-5.99;68.65
70833;BME280;71099;59.528;17.886;2024-01-15T11:08:51;98296.22;;;-5.95;69.09
70833;BME280;71099;59.528;17.886;2024-01-15T11:11:17;98287.16;;;-5.84;68.57
70833;BME280;71099;59.528;17.886;2024-01-15T11:13:43;98293.09;;;-5.98;69.22
70833;BME280;71099;59.528;17.886;2024-01-15T11:16:14;98283.16;;;-6.00;68.64
70833;BME280;71099;59.528;17.886;2024-01-15T11:19:01;98296.47;;;-6.12;68.36
70833;BME280;71099;59.528;17.886;2024-01-15T11:21:28;98289.94;;;-6.02;68.98
70833;BME280;71099;59.528;17.886;2024-01-15T11:23:59;98293.19;;;-6.00;67.87
70833;BME280;71099;59.528;17.886;2024-01-15T11:28:57;98294.88;;;-6.00;68.71
70833;BME280;71099;59.528;17.886;2024-01-15T11:34:07;98298.19;;;-6.00;67.48
70833;BME280;71099;59.528;17.886;2024-01-15T11:41:58;98304.84;;;-5.99;67.86
70833;BME280;71099;59.528;17.886;2024-01-15T11:44:25;98313.88;;;-5.96;68.28
70833;BME280;71099;59.528;17.886;2024-01-15T11:47:03;98306.44;;;-5.98;68.94
70833;BME280;71099;59.528;17.886;2024-01-15T11:52:11;98301.81;;;-6.04;67.73
70833;BME280;71099;59.528;17.886;2024-01-15T11:54:44;98313.28;;;-6.00;68.15
70833;BME280;71099;59.528;17.886;2024-01-15T11:57:33;98314.44;;;-6.18;67.49
70833;BME280;71099;59.528;17.886;2024-01-15T12:00:04;98309.94;;;-6.13;68.04
70833;BME280;71099;59.528;17.886;2024-01-15T12:02:30;98314.84;;;-6.11;67.42
70833;BME280;71099;59.528;17.886;2024-01-15T12:04:55;98312.25;;;-6.10;67.22
70833;BME280;71099;59.528;17.886;2024-01-15T12:07:21;98313.22;;;-6.12;67.76
70833;BME280;71099;59.528;17.886;2024-01-15T12:09:47;98321.19;;;-6.06;67.72
70833;BME280;71099;59.528;17.886;2024-01-15T12:15:11;98316.47;;;-5.98;66.86
70833;BME280;71099;59.528;17.886;2024-01-15T12:17:38;98321.31;;;-5.95;67.29
70833;BME280;71099;59.528;17.886;2024-01-15T12:20:04;98314.69;;;-5.96;67.26
70833;BME280;71099;59.528;17.886;2024-01-15T12:22:30;98319.72;;;-5.96;68.43
70833;BME280;71099;59.528;17.886;2024-01-15T12:24:55;98316.78;;;-5.89;67.82
70833;BME280;71099;59.528;17.886;2024-01-15T12:27:23;98327.13;;;-5.81;67.83
70833;BME280;71099;59.528;17.886;2024-01-15T12:29:49;98321.50;;;-5.98;67.28
70833;BME280;71099;59.528;17.886;2024-01-15T12:32:14;98316.09;;;-5.91;67.36
70833;BME280;71099;59.528;17.886;2024-01-15T12:34:39;98320.47;;;-5.82;68.27
70833;BME280;71099;59.528;17.886;2024-01-15T12:37:07;98318.91;;;-5.83;67.75
70833;BME280;71099;59.528;17.886;2024-01-15T12:39:34;98329.94;;;-5.86;67.06
70833;BME280;71099;59.528;17.886;2024-01-15T12:42:01;98321.91;;;-6.04;67.21
70833;BME280;71099;59.528;17.886;2024-01-15T12:44:27;98333.75;;;-5.93;69.00
70833;BME280;71099;59.528;17.886;2024-01-15T12:46:53;98337.03;;;-6.05;66.92
70833;BME280;71099;59.528;17.886;2024-01-15T12:49:18;98334.31;;;-6.15;67.36
70833;BME280;71099;59.528;17.886;2024-01-15T12:51:52;98343.19;;;-6.09;66.63
70833;BME280;71099;59.528;17.886;2024-01-15T12:54:17;98333.31;;;-6.12;66.61
70833;BME280;71099;59.528;17.886;2024-01-15T12:56:43;98348.00;;;-6.06;67.66
70833;BME280;71099;59.528;17.886;2024-01-15T12:59:08;98335.94;;;-6.14;67.30
70833;BME280;71099;59.528;17.886;2024-01-15T13:01:33;98341.78;;;-6.01;67.30